createdAt,value
2018-02-01T00:01:01.453Z,90.20
2018-02-01T00:03:30.547Z,90.20
2018-02-01T00:05:59.696Z,90.30
2018-02-01T00:08:29.362Z,90.40
2018-02-01T00:10:59.546Z,90.40
2018-02-01T00:13:28.950Z,90.50
2018-02-01T00:15:58.389Z,90.40
2018-02-01T00:18:28.254Z,90.40
2018-02-01T00:20:57.353Z,90.40
2018-02-01T00:23:26.488Z,90.30
2018-02-01T00:25:55.249Z,90.40
2018-02-01T00:28:24.389Z,90.40
2018-02-01T00:30:53.146Z,90.50
2018-02-01T00:33:22.581Z,90.60
2018-02-01T00:36:11.275Z,90.80
2018-02-01T00:38:40.659Z,90.80
2018-02-01T00:41:10.222Z,91.00
2018-02-01T00:43:39.640Z,91.00
2018-02-01T00:46:09.061Z,91.10
2018-02-01T00:48:38.492Z,91.10
2018-02-01T00:51:07.911Z,91.10
2018-02-01T00:53:37.330Z,91.40
2018-02-01T00:56:06.747Z,91.40
2018-02-01T00:58:36.167Z,91.40
2018-02-01T01:01:05.582Z,91.30
2018-02-01T01:03:35.760Z,91.40
2018-02-01T01:06:05.174Z,91.40
2018-02-01T01:08:34.319Z,91.20
2018-02-01T01:11:03.404Z,91.30
2018-02-01T01:13:32.816Z,91.20
2018-02-01T01:16:02.235Z,91.30
2018-02-01T01:18:31.651Z,91.20
2018-02-01T01:21:01.068Z,91.10
2018-02-01T01:23:30.521Z,91.30
2018-02-01T01:25:59.929Z,91.20
2018-02-01T01:28:29.545Z,91.20
2018-02-01T01:30:58.991Z,91.30
2018-02-01T01:33:29.147Z,91.40
2018-02-01T01:35:58.588Z,91.40
2018-02-01T01:38:28.020Z,91.30
2018-02-01T01:40:57.425Z,91.20
2018-02-01T01:43:26.841Z,91.10
2018-02-01T01:46:07.467Z,91.10
2018-02-01T01:48:36.900Z,91.00
2018-02-01T01:51:06.023Z,90.90
2018-02-01T01:53:35.147Z,90.90
2018-02-01T01:56:04.560Z,91.00
2018-02-01T01:58:33.977Z,91.00
2018-02-01T02:01:03.405Z,91.10
2018-02-01T02:03:32.851Z,91.20
2018-02-01T02:06:01.995Z,91.10
2018-02-01T02:08:31.117Z,91.20
2018-02-01T02:11:00.536Z,91.20
2018-02-01T02:13:29.951Z,91.20
2018-02-01T02:15:59.367Z,91.20
2018-02-01T02:18:28.775Z,91.10
2018-02-01T02:20:57.854Z,91.10
2018-02-01T02:23:27.296Z,91.10
2018-02-01T02:25:56.712Z,91.00
2018-02-01T02:28:26.128Z,91.00
2018-02-01T02:30:55.532Z,91.00
2018-02-01T02:33:24.292Z,91.00
2018-02-01T02:35:53.098Z,91.00
2018-02-01T02:38:23.278Z,90.90
2018-02-01T02:40:52.681Z,90.90
2018-02-01T02:43:22.100Z,90.90
2018-02-01T02:45:51.511Z,90.90
2018-02-01T02:48:20.919Z,90.80
2018-02-01T02:50:50.317Z,90.80
2018-02-01T02:53:19.712Z,90.70
2018-02-01T02:55:49.883Z,90.70
2018-02-01T02:58:19.291Z,90.60
2018-02-01T03:00:48.703Z,90.60
2018-02-01T03:03:18.107Z,90.50
2018-02-01T03:05:48.283Z,90.50
2018-02-01T03:08:17.671Z,90.50
2018-02-01T03:10:46.750Z,90.50
2018-02-01T03:13:16.595Z,90.40
2018-02-01T03:15:45.996Z,90.40
2018-02-01T03:18:15.551Z,90.50
2018-02-01T03:20:44.960Z,90.50
2018-02-01T03:23:14.364Z,90.40
2018-02-01T03:25:43.779Z,90.50
2018-02-01T03:28:13.176Z,90.50
2018-02-01T03:30:43.364Z,90.40
2018-02-01T03:33:12.797Z,90.40
2018-02-01T03:35:41.940Z,90.40
2018-02-01T03:38:11.392Z,90.30
2018-02-01T03:40:40.838Z,90.40
2018-02-01T03:43:10.255Z,90.40
2018-02-01T03:45:39.652Z,90.40
2018-02-01T03:48:09.052Z,90.40
2018-02-01T03:50:38.513Z,90.40
2018-02-01T03:53:07.912Z,90.30
2018-02-01T03:55:37.318Z,90.30
2018-02-01T03:58:06.728Z,90.30
2018-02-01T04:00:36.116Z,90.30
2018-02-01T04:03:05.556Z,90.30
2018-02-01T04:05:34.948Z,90.40
2018-02-01T04:08:04.386Z,90.40
2018-02-01T04:10:33.997Z,90.40
2018-02-01T04:13:03.405Z,90.40
2018-02-01T04:15:32.821Z,90.40
2018-02-01T04:18:02.232Z,90.40
2018-02-01T04:20:31.627Z,90.40
2018-02-01T04:23:01.042Z,90.50
2018-02-01T04:25:30.431Z,90.60
2018-02-01T04:28:00.623Z,91.00
2018-02-01T04:30:29.706Z,91.00
2018-02-01T04:32:59.124Z,90.90
2018-02-01T04:35:28.529Z,90.90
2018-02-01T04:37:57.672Z,91.00
2018-02-01T04:40:27.114Z,90.90
2018-02-01T04:42:56.499Z,90.90
2018-02-01T04:45:25.902Z,90.90
2018-02-01T04:47:55.292Z,91.00
2018-02-01T04:50:24.516Z,91.00
2018-02-01T04:52:53.571Z,91.00
2018-02-01T04:55:22.303Z,90.90
2018-02-01T04:57:51.711Z,91.00
2018-02-01T05:00:20.839Z,91.10
2018-02-01T05:02:50.251Z,91.00
2018-02-01T05:05:20.906Z,90.90
2018-02-01T05:07:50.298Z,90.90
2018-02-01T05:10:19.700Z,90.80
2018-02-01T05:12:49.869Z,90.90
2018-02-01T05:15:19.271Z,90.90
2018-02-01T05:17:48.691Z,90.70
2018-02-01T05:20:18.095Z,90.70
2018-02-01T05:22:47.502Z,90.70
2018-02-01T05:25:16.912Z,90.70
2018-02-01T05:27:46.337Z,90.70
2018-02-01T05:30:15.744Z,90.70
2018-02-01T05:32:44.844Z,90.60
2018-02-01T05:35:14.815Z,90.50
2018-02-01T05:37:44.036Z,90.50
2018-02-01T05:40:14.365Z,90.50
2018-02-01T05:42:43.780Z,90.50
2018-02-01T05:45:13.192Z,90.60
2018-02-01T05:47:42.592Z,90.70
2018-02-01T05:50:11.731Z,90.70
2018-02-01T05:52:41.631Z,90.60
2018-02-01T05:55:11.044Z,90.60
2018-02-01T05:57:40.449Z,90.60
2018-02-01T06:00:09.888Z,90.70
2018-02-01T06:02:39.496Z,90.70
2018-02-01T06:05:08.316Z,90.80
2018-02-01T06:07:37.908Z,90.80
2018-02-01T06:10:07.324Z,90.70
2018-02-01T06:12:36.741Z,90.70
2018-02-01T06:15:06.153Z,90.70
2018-02-01T06:17:36.507Z,90.80
2018-02-01T06:20:05.057Z,90.80
2018-02-01T06:22:35.225Z,90.80
2018-02-01T06:25:04.288Z,90.80
2018-02-01T06:27:34.455Z,90.90
2018-02-01T06:30:03.400Z,90.90
2018-02-01T06:32:32.803Z,90.80
2018-02-01T06:35:02.229Z,90.70
2018-02-01T06:37:32.124Z,90.80
2018-02-01T06:40:01.538Z,90.80
2018-02-01T06:42:30.945Z,90.80
2018-02-01T06:45:00.094Z,90.80
2018-02-01T06:47:29.492Z,90.90
2018-02-01T06:49:58.952Z,91.20
2018-02-01T06:52:29.127Z,90.90
2018-02-01T06:54:58.555Z,90.90
2018-02-01T06:57:27.956Z,90.80
2018-02-01T06:59:57.379Z,90.80
2018-02-01T07:02:26.588Z,90.80
2018-02-01T07:04:56.041Z,90.80
2018-02-01T07:07:25.433Z,90.80
2018-02-01T07:09:54.863Z,90.70
2018-02-01T07:12:24.276Z,90.80
2018-02-01T07:14:53.694Z,90.80
2018-02-01T07:17:23.097Z,91.00
2018-02-01T07:19:52.500Z,91.10
2018-02-01T07:22:21.912Z,91.10
2018-02-01T07:24:50.800Z,91.10
2018-02-01T07:27:19.938Z,91.00
2018-02-01T07:29:49.821Z,90.90
2018-02-01T07:32:19.238Z,90.90
2018-02-01T07:34:48.450Z,90.90
2018-02-01T07:37:17.859Z,90.70
2018-02-01T07:39:47.279Z,90.70
2018-02-01T07:42:16.663Z,90.50
2018-02-01T07:44:46.840Z,90.40
2018-02-01T07:47:16.080Z,90.40
2018-02-01T07:49:45.484Z,90.30
2018-02-01T07:52:14.931Z,90.50
2018-02-01T07:54:44.483Z,90.30
2018-02-01T07:57:13.895Z,90.30
2018-02-01T07:59:43.303Z,90.10
2018-02-01T08:02:12.703Z,90.00
2018-02-01T08:04:42.895Z,89.60
2018-02-01T08:07:12.320Z,89.60
2018-02-01T08:09:41.728Z,89.20
2018-02-01T08:12:10.868Z,88.80
2018-02-01T08:14:41.128Z,88.80
2018-02-01T08:17:10.546Z,89.40
2018-02-01T08:19:39.951Z,88.90
2018-02-01T08:22:09.179Z,88.80
2018-02-01T08:24:39.360Z,88.60
2018-02-01T08:27:08.776Z,88.60
2018-02-01T08:29:38.183Z,88.80
2018-02-01T08:32:07.598Z,89.20
2018-02-01T08:34:37.315Z,88.70
2018-02-01T08:37:06.722Z,88.70
2018-02-01T08:39:36.138Z,88.50
2018-02-01T08:42:05.534Z,88.70
2018-02-01T08:44:34.947Z,88.70
2018-02-01T08:47:04.051Z,89.10
2018-02-01T08:49:33.453Z,88.30
2018-02-01T08:52:03.463Z,87.70
2018-02-01T08:54:32.699Z,87.70
2018-02-01T08:57:02.875Z,87.60
2018-02-01T08:59:32.277Z,87.60
2018-02-01T09:02:01.695Z,87.60
2018-02-01T09:04:31.111Z,87.50
2018-02-01T09:07:00.541Z,87.50
2018-02-01T09:09:30.260Z,87.10
2018-02-01T09:11:59.668Z,86.80
2018-02-01T09:14:29.063Z,86.90
2018-02-01T09:16:58.483Z,86.50
2018-02-01T09:19:27.623Z,86.70
2018-02-01T09:21:57.019Z,87.00
2018-02-01T09:24:26.436Z,86.20
2018-02-01T09:26:55.860Z,86.20
2018-02-01T09:29:25.079Z,85.90
2018-02-01T09:31:54.488Z,86.40
2018-02-01T09:34:23.903Z,86.60
2018-02-01T09:36:53.302Z,86.00
2018-02-01T09:39:22.730Z,86.00
2018-02-01T09:41:52.226Z,85.90
2018-02-01T09:44:22.408Z,85.90
2018-02-01T09:46:51.796Z,85.80
2018-02-01T09:49:20.930Z,85.30
2018-02-01T09:51:50.053Z,85.40
2018-02-01T09:54:19.471Z,85.60
2018-02-01T09:56:48.908Z,85.70
2018-02-01T09:59:18.300Z,85.20
2018-02-01T10:01:47.740Z,85.50
2018-02-01T10:04:17.140Z,85.30
2018-02-01T10:06:46.545Z,85.30
2018-02-01T10:09:15.675Z,85.00
2018-02-01T10:11:45.095Z,84.80
2018-02-01T10:14:14.493Z,85.00
2018-02-01T10:16:43.616Z,84.90
2018-02-01T10:19:13.531Z,85.00
2018-02-01T10:21:42.931Z,85.00
2018-02-01T10:24:11.830Z,85.00
2018-02-01T10:26:41.222Z,85.30
2018-02-01T10:29:10.350Z,85.30
2018-02-01T10:31:39.471Z,84.80
2018-02-01T10:34:08.873Z,85.50
2018-02-01T10:36:38.282Z,85.90
2018-02-01T10:39:08.444Z,85.90
2018-02-01T10:41:37.864Z,85.70
2018-02-01T10:44:07.265Z,87.00
2018-02-01T10:46:36.692Z,86.80
2018-02-01T10:49:06.088Z,87.50
2018-02-01T10:51:36.267Z,86.90
2018-02-01T10:54:05.683Z,86.90
2018-02-01T10:56:35.084Z,87.70
2018-02-01T10:59:04.206Z,88.20
2018-02-01T11:01:33.620Z,88.10
2018-02-01T11:04:03.031Z,88.40
2018-02-01T11:06:32.440Z,88.20
2018-02-01T11:09:01.858Z,88.90
2018-02-01T11:11:30.326Z,88.80
2018-02-01T11:14:00.504Z,88.70
2018-02-01T11:16:29.913Z,88.70
2018-02-01T11:18:59.036Z,88.60
2018-02-01T11:21:28.459Z,88.30
2018-02-01T11:23:57.888Z,88.30
2018-02-01T11:26:27.899Z,87.80
2018-02-01T11:28:57.308Z,87.80
2018-02-01T11:31:26.429Z,88.20
2018-02-01T11:33:55.993Z,88.30
2018-02-01T11:36:26.155Z,88.10
2018-02-01T11:38:55.577Z,88.10
2018-02-01T11:41:25.026Z,88.30
2018-02-01T11:43:54.309Z,87.80
2018-02-01T11:46:23.719Z,88.30
2018-02-01T11:48:53.140Z,88.20
2018-02-01T11:51:22.282Z,88.50
2018-02-01T11:53:51.659Z,88.50
2018-02-01T11:56:20.803Z,89.10
2018-02-01T11:58:50.197Z,88.50
2018-02-01T12:01:20.182Z,88.80
2018-02-01T12:03:49.597Z,88.80
2018-02-01T12:06:18.719Z,88.50
2018-02-01T12:08:48.160Z,89.20
2018-02-01T12:11:17.283Z,88.90
2018-02-01T12:13:46.696Z,89.10
2018-02-01T12:16:15.860Z,89.60
2018-02-01T12:18:44.984Z,89.60
2018-02-01T12:21:14.896Z,88.90
2018-02-01T12:23:44.040Z,88.80
2018-02-01T12:26:13.155Z,89.40
2018-02-01T12:28:42.501Z,88.70
2018-02-01T12:31:11.636Z,89.20
2018-02-01T12:33:40.110Z,89.40
2018-02-01T12:36:09.248Z,89.90
2018-02-01T12:38:38.380Z,89.90
2018-02-01T12:41:08.283Z,89.60
2018-02-01T12:43:37.431Z,89.60
2018-02-01T12:46:06.544Z,89.80
2018-02-01T12:48:35.722Z,89.60
2018-02-01T12:51:05.600Z,90.60
2018-02-01T12:53:35.508Z,90.10
2018-02-01T12:56:05.397Z,89.60
2018-02-01T12:58:34.515Z,89.60
2018-02-01T13:01:03.654Z,90.00
2018-02-01T13:03:33.542Z,89.90
2018-02-01T13:06:02.677Z,89.90
2018-02-01T13:08:32.611Z,89.50
2018-02-01T13:11:01.860Z,90.10
2018-02-01T13:13:30.659Z,90.10
2018-02-01T13:15:59.777Z,90.40
2018-02-01T13:18:28.919Z,90.80
2018-02-01T13:20:58.057Z,90.50
2018-02-01T13:23:28.261Z,89.90
2018-02-01T13:25:57.476Z,89.80
2018-02-01T13:28:26.618Z,90.00
2018-02-01T13:30:55.749Z,89.80
2018-02-01T13:33:24.892Z,90.00
2018-02-01T13:35:54.022Z,90.20
2018-02-01T13:38:23.932Z,90.50
2018-02-01T13:40:53.055Z,90.50
2018-02-01T13:43:22.981Z,90.70
2018-02-01T13:45:52.885Z,90.50
2018-02-01T13:48:21.693Z,90.50
2018-02-01T13:50:50.838Z,89.80
2018-02-01T13:53:19.972Z,90.40
2018-02-01T13:55:49.109Z,90.00
2018-02-01T13:58:18.242Z,90.10
2018-02-01T14:00:48.136Z,88.80
2018-02-01T14:03:17.265Z,88.80
2018-02-01T14:05:45.740Z,88.30
2018-02-01T14:08:14.869Z,87.60
2018-02-01T14:10:44.037Z,88.00
2018-02-01T14:13:13.683Z,88.20
2018-02-01T14:15:42.800Z,86.90
2018-02-01T14:18:11.972Z,88.30
2018-02-01T14:20:41.109Z,87.90
2018-02-01T14:23:10.263Z,87.60
2018-02-01T14:25:40.185Z,87.10
2018-02-01T14:28:09.336Z,87.80
2018-02-01T14:30:38.895Z,87.20
2018-02-01T14:33:08.808Z,88.20
2018-02-01T14:35:37.941Z,88.20
2018-02-01T14:38:07.855Z,86.70
2018-02-01T14:40:37.701Z,87.90
2018-02-01T14:43:06.827Z,87.80
2018-02-01T14:45:35.952Z,88.80
2018-02-01T14:48:05.075Z,88.50
2018-02-01T14:50:34.216Z,88.80
2018-02-01T14:53:03.355Z,88.20
2018-02-01T14:55:32.491Z,87.70
2018-02-01T14:58:01.652Z,88.70
2018-02-01T15:00:31.561Z,88.50
2018-02-01T15:03:00.696Z,88.50
2018-02-01T15:05:30.260Z,87.90
2018-02-01T15:07:59.408Z,87.90
2018-02-01T15:10:29.303Z,88.70
2018-02-01T15:12:59.386Z,88.60
2018-02-01T15:15:28.519Z,86.90
2018-02-01T15:17:57.666Z,86.90
2018-02-01T15:20:26.796Z,86.50
2018-02-01T15:22:56.707Z,87.50
2018-02-01T15:25:25.854Z,87.50
2018-02-01T15:27:55.767Z,88.00
2018-02-01T15:30:25.684Z,88.00
2018-02-01T15:32:54.825Z,87.90
2018-02-01T15:35:24.742Z,87.80
2018-02-01T15:37:54.667Z,88.00
2018-02-01T15:40:24.594Z,88.20
2018-02-01T15:42:53.730Z,88.20
2018-02-01T15:45:22.871Z,88.40
2018-02-01T15:47:52.015Z,88.20
2018-02-01T15:50:21.163Z,87.80
2018-02-01T15:52:50.290Z,87.80
2018-02-01T15:55:18.774Z,87.30
2018-02-01T15:57:47.988Z,84.70
2018-02-01T16:00:16.928Z,84.70
2018-02-01T16:02:46.095Z,84.70
2018-02-01T16:05:14.596Z,84.10
2018-02-01T16:07:43.711Z,84.30
2018-02-01T16:10:12.520Z,83.60
2018-02-01T16:12:41.712Z,83.80
2018-02-01T16:15:10.868Z,84.30
2018-02-01T16:17:40.299Z,84.00
2018-02-01T16:20:09.425Z,83.90
2018-02-01T16:22:38.560Z,84.40
2018-02-01T16:25:07.676Z,84.40
2018-02-01T16:27:36.827Z,84.40
2018-02-01T16:30:05.940Z,84.30
2018-02-01T16:32:35.096Z,84.60
2018-02-01T16:35:07.218Z,83.90
2018-02-01T16:37:36.355Z,84.00
2018-02-01T16:40:05.469Z,83.90
2018-02-01T16:42:34.605Z,83.20
2018-02-01T16:45:03.736Z,83.10
2018-02-01T16:47:32.871Z,82.90
2018-02-01T16:50:02.025Z,82.10
2018-02-01T16:52:31.976Z,82.10
2018-02-01T16:55:01.878Z,81.70
2018-02-01T16:57:31.006Z,81.70
2018-02-01T17:00:00.911Z,81.80
2018-02-01T17:02:30.034Z,81.80
2018-02-01T17:04:59.163Z,82.00
2018-02-01T17:07:28.279Z,81.80
2018-02-01T17:09:57.433Z,81.90
2018-02-01T17:12:26.238Z,82.30
2018-02-01T17:14:55.040Z,82.60
2018-02-01T17:17:24.176Z,83.10
2018-02-01T17:19:53.396Z,83.10
2018-02-01T17:22:23.296Z,84.00
2018-02-01T17:24:52.424Z,83.30
2018-02-01T17:27:21.556Z,83.60
2018-02-01T17:29:51.437Z,85.10
2018-02-01T17:32:20.565Z,85.10
2018-02-01T17:34:49.697Z,86.20
2018-02-01T17:37:18.819Z,86.70
2018-02-01T17:39:47.950Z,86.70
2018-02-01T17:42:17.083Z,86.80
2018-02-01T17:44:46.206Z,86.40
2018-02-01T17:47:15.343Z,84.60
2018-02-01T17:49:45.232Z,85.70
2018-02-01T17:52:14.418Z,85.70
2018-02-01T17:54:43.223Z,86.50
2018-02-01T17:57:12.364Z,86.80
2018-02-01T17:59:41.524Z,87.10
2018-02-01T18:02:11.395Z,87.30
2018-02-01T18:04:40.544Z,87.30
2018-02-01T18:07:10.435Z,87.30
2018-02-01T18:09:39.578Z,87.30
2018-02-01T18:12:09.480Z,87.50
2018-02-01T18:14:40.143Z,87.30
2018-02-01T18:17:09.287Z,87.20
2018-02-01T18:19:38.393Z,86.80
2018-02-01T18:22:07.538Z,87.70
2018-02-01T18:24:36.668Z,87.80
2018-02-01T18:27:05.804Z,87.60
2018-02-01T18:29:34.920Z,87.90
2018-02-01T18:32:04.174Z,89.20
2018-02-01T18:34:33.305Z,88.80
2018-02-01T18:37:02.743Z,89.00
2018-02-01T18:39:31.868Z,88.90
2018-02-01T18:42:01.774Z,88.90
2018-02-01T18:44:30.891Z,88.80
2018-02-01T18:47:00.017Z,87.90
2018-02-01T18:49:29.153Z,87.10
2018-02-01T18:51:58.277Z,86.90
2018-02-01T18:54:27.413Z,86.80
2018-02-01T18:56:56.535Z,86.80
2018-02-01T18:59:25.673Z,86.80
2018-02-01T19:01:55.563Z,87.30
2018-02-01T19:04:24.684Z,87.20
2018-02-01T19:06:53.813Z,87.40
2018-02-01T19:09:23.700Z,86.90
2018-02-01T19:11:52.820Z,86.90
2018-02-01T19:14:21.956Z,86.70
2018-02-01T19:16:51.857Z,86.50
2018-02-01T19:19:20.987Z,86.50
2018-02-01T19:21:50.918Z,86.40
2018-02-01T19:24:20.010Z,86.40
2018-02-01T19:26:49.187Z,86.60
2018-02-01T19:29:18.463Z,86.20
2018-02-01T19:31:47.600Z,85.80
2018-02-01T19:34:16.735Z,85.50
2018-02-01T19:36:45.934Z,85.50
2018-02-01T19:39:15.064Z,85.40
2018-02-01T19:41:44.184Z,85.80
2018-02-01T19:44:14.118Z,85.10
2018-02-01T19:46:44.011Z,85.20
2018-02-01T19:49:13.152Z,85.20
2018-02-01T19:51:43.059Z,85.00
2018-02-01T19:54:12.196Z,85.00
2018-02-01T19:56:42.100Z,85.20
2018-02-01T19:59:11.228Z,85.20
2018-02-01T20:01:40.370Z,85.40
2018-02-01T20:04:09.708Z,85.50
2018-02-01T20:06:38.880Z,85.80
2018-02-01T20:09:08.028Z,86.40
2018-02-01T20:11:37.152Z,86.10
2018-02-01T20:14:06.284Z,86.50
2018-02-01T20:16:35.411Z,86.90
2018-02-01T20:19:04.546Z,87.60
2018-02-01T20:21:33.654Z,87.70
2018-02-01T20:24:02.795Z,87.90
2018-02-01T20:26:31.927Z,88.10
2018-02-01T20:29:01.052Z,87.90
2018-02-01T20:31:30.192Z,87.90
2018-02-01T20:33:59.327Z,87.80
2018-02-01T20:36:29.357Z,87.50
2018-02-01T20:38:58.523Z,87.50
2018-02-01T20:41:27.642Z,87.50
2018-02-01T20:43:56.826Z,87.40
2018-02-01T20:46:25.944Z,87.50
2018-02-01T20:48:55.083Z,87.50
2018-02-01T20:51:25.703Z,87.10
2018-02-01T20:53:54.858Z,87.10
2018-02-01T20:56:23.977Z,87.20
2018-02-01T20:58:53.884Z,86.10
2018-02-01T21:01:23.011Z,86.00
2018-02-01T21:03:52.902Z,86.40
2018-02-01T21:06:22.037Z,86.30
2018-02-01T21:08:51.921Z,86.90
2018-02-01T21:11:21.065Z,86.90
2018-02-01T21:13:50.634Z,86.50
2018-02-01T21:16:19.749Z,86.50
2018-02-01T21:18:48.872Z,86.50
2018-02-01T21:21:18.004Z,86.40
2018-02-01T21:23:47.140Z,86.30
2018-02-01T21:26:16.262Z,86.20
2018-02-01T21:28:45.440Z,86.10
2018-02-01T21:31:14.556Z,86.40
2018-02-01T21:33:44.470Z,86.60
2018-02-01T21:36:13.808Z,87.40
2018-02-01T21:38:42.968Z,86.90
2018-02-01T21:41:12.101Z,87.40
2018-02-01T21:43:42.020Z,87.20
2018-02-01T21:46:11.389Z,87.20
2018-02-01T21:48:40.512Z,87.00
2018-02-01T21:51:09.646Z,86.70
2018-02-01T21:53:39.049Z,86.80
2018-02-01T21:56:08.456Z,87.10
2018-02-01T21:58:37.873Z,87.20
2018-02-01T22:01:07.276Z,87.10
2018-02-01T22:03:36.671Z,87.60
2018-02-01T22:06:06.855Z,88.20
2018-02-01T22:08:36.251Z,88.20
2018-02-01T22:11:05.665Z,88.20
2018-02-01T22:13:35.076Z,88.60
2018-02-01T22:16:04.203Z,88.60
2018-02-01T22:18:33.611Z,88.70
2018-02-01T22:21:03.007Z,89.30
2018-02-01T22:23:32.445Z,89.30
2018-02-01T22:26:01.842Z,89.60
2018-02-01T22:28:31.244Z,89.70
2018-02-01T22:31:00.655Z,90.00
2018-02-01T22:33:30.837Z,90.20
2018-02-01T22:36:00.442Z,90.20
2018-02-01T22:38:29.858Z,90.00
2018-02-01T22:40:59.265Z,89.80
2018-02-01T22:43:28.664Z,89.90
2018-02-01T22:45:58.069Z,88.90
2018-02-01T22:48:27.662Z,88.60
2018-02-01T22:50:57.447Z,88.60
2018-02-01T22:53:28.055Z,88.30
2018-02-01T22:55:58.206Z,88.20
2018-02-01T22:58:27.737Z,88.20
2018-02-01T23:00:57.597Z,87.90
2018-02-01T23:03:26.377Z,87.90
2018-02-01T23:05:55.790Z,88.60
2018-02-01T23:08:25.191Z,87.60
2018-02-01T23:10:54.611Z,87.80
2018-02-01T23:13:24.022Z,87.40
2018-02-01T23:15:53.455Z,87.70
2018-02-01T23:18:22.863Z,88.00
2018-02-01T23:20:52.335Z,88.20
2018-02-01T23:23:21.416Z,88.00
2018-02-01T23:25:50.643Z,88.00
2018-02-01T23:28:19.810Z,88.00
2018-02-01T23:30:49.389Z,88.10
2018-02-01T23:33:18.806Z,87.50
2018-02-01T23:35:48.207Z,88.00
2018-02-01T23:38:17.616Z,88.60
2018-02-01T23:40:47.793Z,89.30
2018-02-01T23:43:17.231Z,89.30
2018-02-01T23:45:46.832Z,89.10
2018-02-01T23:48:16.244Z,88.80
2018-02-01T23:50:45.655Z,88.70
2018-02-01T23:53:15.068Z,88.80
2018-02-01T23:55:44.491Z,88.60
2018-02-01T23:58:13.921Z,88.60
